Time;durP1;ratioP1;P1;durP2;ratioP2;P2;SDS_P1;SDS_P2;PMS_P1;PMS_P2;Temp;Humidity;BMP_temperature;BMP_pressure;BME280_temperature;BME280_humidity;BME280_pressure;Samples;Min_cycle;Max_cycle;Signal;HPM_P1;HPM_P2
2023/05/28 00:00:13;;;;;;;10.20;6.63;;;;;;;;;;6177588;23;20333;-74
2023/05/28 00:02:39;;;;;;;11.18;6.75;;;;;;;;;;6182633;23;20009;-74
2023/05/28 00:05:06;;;;;;;11.73;6.78;;;;;;;;;;6182257;23;20055;-75
2023/05/28 00:07:32;;;;;;;12.85;6.85;;;;;;;;;;6182547;23;20012;-74
2023/05/28 00:09:58;;;;;;;15.15;7.10;;;;;;;;;;6182178;23;20009;-74
2023/05/28 00:12:25;;;;;;;11.45;6.80;;;;;;;;;;6182341;23;20068;-74
2023/05/28 00:14:51;;;;;;;9.85;6.70;;;;;;;;;;6182617;23;20428;-74
2023/05/28 00:17:17;;;;;;;11.52;7.30;;;;;;;;;;6182369;23;20017;-74
2023/05/28 00:19:44;;;;;;;14.55;6.97;;;;;;;;;;6245082;23;20090;-74
2023/05/28 00:22:10;;;;;;;14.52;6.40;;;;;;;;;;6245013;23;20359;-74
2023/05/28 00:24:36;;;;;;;15.40;7.78;;;;;;;;;;6245218;23;20423;-74
2023/05/28 00:27:03;;;;;;;15.15;6.93;;;;;;;;;;6245236;23;20055;-74
2023/05/28 00:29:29;;;;;;;10.75;8.23;;;;;;;;;;6245175;23;20004;-74
2023/05/28 00:31:56;;;;;;;14.52;7.05;;;;;;;;;;6245728;23;20031;-73
2023/05/28 00:34:25;;;;;;;13.82;7.50;;;;;;;;;;6245174;23;20032;-74
2023/05/28 00:36:53;;;;;;;11.95;7.88;;;;;;;;;;6244938;23;20043;-75
2023/05/28 00:39:19;;;;;;;12.13;7.70;;;;;;;;;;6245410;23;20000;-74
2023/05/28 00:41:45;;;;;;;12.90;7.45;;;;;;;;;;6245298;23;20003;-74
2023/05/28 00:44:12;;;;;;;12.10;7.25;;;;;;;;;;6245366;23;20034;-74
2023/05/28 00:46:42;;;;;;;13.80;7.35;;;;;;;;;;6245457;23;20011;-75
2023/05/28 00:49:10;;;;;;;14.20;7.78;;;;;;;;;;6304732;22;20011;-74
2023/05/28 00:51:36;;;;;;;13.15;7.80;;;;;;;;;;6306633;22;20082;-74
2023/05/28 00:54:03;;;;;;;13.30;7.65;;;;;;;;;;6307907;22;20010;-72
2023/05/28 00:56:31;;;;;;;14.93;7.50;;;;;;;;;;6279800;22;20100;-72
2023/05/28 00:58:59;;;;;;;11.05;7.30;;;;;;;;;;6304728;22;20011;-72
2023/05/28 01:01:26;;;;;;;12.93;7.50;;;;;;;;;;6304245;22;20068;-73
2023/05/28 01:03:56;;;;;;;11.73;6.55;;;;;;;;;;6304053;22;20007;-73
2023/05/28 01:12:39;;;;;;;14.90;7.00;;;;;;;;;;6212535;23;20007;-73
2023/05/28 01:15:33;;;;;;;;;;;;;;;;;;;;;
2023/05/28 01:21:32;;;;;;;15.90;6.82;;;;;;;;;;6168369;23;20005;-74
2023/05/28 01:23:59;;;;;;;17.42;6.93;;;;;;;;;;6184347;23;20379;-74
2023/05/28 01:26:28;;;;;;;12.23;7.10;;;;;;;;;;6278476;22;20328;-74
2023/05/28 01:29:13;;;;;;;16.58;7.13;;;;;;;;;;6307974;22;19999;-75
2023/05/28 01:31:40;;;;;;;12.02;7.45;;;;;;;;;;6308409;22;20356;-75
2023/05/28 01:34:06;;;;;;;11.88;7.28;;;;;;;;;;6308509;22;20303;-75
2023/05/28 01:36:37;;;;;;;12.70;6.70;;;;;;;;;;6308138;22;20011;-74
2023/05/28 01:39:04;;;;;;;9.25;5.82;;;;;;;;;;6308544;22;20422;-74
2023/05/28 01:41:31;;;;;;;13.75;5.97;;;;;;;;;;6308681;22;20014;-74
2023/05/28 01:43:57;;;;;;;13.18;6.68;;;;;;;;;;6308659;22;19999;-74
2023/05/28 01:46:24;;;;;;;11.00;5.75;;;;;;;;;;6308003;22;20045;-74
2023/05/28 01:48:50;;;;;;;11.40;5.40;;;;;;;;;;6307802;22;20384;-74
2023/05/28 01:51:25;;;;;;;15.25;6.35;;;;;;;;;;6308734;22;20007;-74
2023/05/28 01:53:52;;;;;;;11.77;7.07;;;;;;;;;;6308212;22;20003;-74
2023/05/28 01:56:18;;;;;;;8.35;6.00;;;;;;;;;;6308226;22;20445;-74
2023/05/28 01:58:44;;;;;;;11.65;6.60;;;;;;;;;;6308071;22;20003;-75
2023/05/28 02:01:10;;;;;;;15.25;6.25;;;;;;;;;;6308264;22;20438;-74
2023/05/28 02:03:36;;;;;;;12.60;5.38;;;;;;;;;;6308146;22;19999;-75
2023/05/28 02:06:02;;;;;;;10.77;5.20;;;;;;;;;;6280563;22;20082;-74
2023/05/28 02:08:28;;;;;;;12.25;5.55;;;;;;;;;;6308258;22;20418;-74
2023/05/28 02:10:54;;;;;;;11.43;5.25;;;;;;;;;;6307660;22;20004;-75
2023/05/28 02:13:21;;;;;;;14.23;5.72;;;;;;;;;;6308329;22;20075;-75
2023/05/28 02:15:47;;;;;;;11.80;5.72;;;;;;;;;;6307961;22;20388;-75
2023/05/28 02:18:13;;;;;;;12.90;5.60;;;;;;;;;;6307964;22;20078;-74
2023/05/28 02:20:39;;;;;;;9.55;5.20;;;;;;;;;;6308209;22;19999;-73
2023/05/28 02:23:05;;;;;;;13.82;5.25;;;;;;;;;;6307964;22;20444;-75
2023/05/28 02:25:31;;;;;;;16.65;5.13;;;;;;;;;;6308036;22;20027;-75
2023/05/28 02:27:58;;;;;;;12.02;5.43;;;;;;;;;;6308191;22;20007;-74
2023/05/28 02:30:24;;;;;;;12.82;5.50;;;;;;;;;;6307518;22;20074;-73
2023/05/28 02:32:50;;;;;;;11.35;4.90;;;;;;;;;;6308458;22;20022;-74
2023/05/28 02:35:18;;;;;;;10.70;5.28;;;;;;;;;;6308502;22;20110;-74
2023/05/28 02:37:44;;;;;;;14.68;5.82;;;;;;;;;;6308543;22;20023;-73
2023/05/28 02:40:14;;;;;;;13.48;4.97;;;;;;;;;;6308122;22;19995;-74
2023/05/28 02:46:19;;;;;;;12.82;5.50;;;;;;;;;;6308192;22;20014;-74
2023/05/28 03:01:30;;;;;;;12.30;5.90;;;;;;;;;;5952739;24;20121;-74
2023/05/28 03:06:50;;;;;;;13.30;5.68;;;;;;;;;;6047650;23;20014;-73
2023/05/28 03:09:16;;;;;;;9.35;5.50;;;;;;;;;;6150585;23;20341;-73
2023/05/28 03:11:42;;;;;;;15.90;5.63;;;;;;;;;;6205048;22;20355;-74
2023/05/28 03:14:09;;;;;;;14.98;5.68;;;;;;;;;;6307521;22;20329;-73
2023/05/28 03:16:36;;;;;;;9.48;5.63;;;;;;;;;;6307403;22;20000;-74
2023/05/28 03:19:02;;;;;;;11.48;5.78;;;;;;;;;;6307419;22;20030;-74
2023/05/28 03:21:28;;;;;;;10.43;5.97;;;;;;;;;;6307546;22;20270;-73
2023/05/28 03:23:54;;;;;;;12.77;6.07;;;;;;;;;;6307455;22;20005;-73
2023/05/28 03:26:21;;;;;;;10.98;5.90;;;;;;;;;;6307139;22;20326;-73
2023/05/28 03:28:47;;;;;;;12.65;5.90;;;;;;;;;;6307211;22;20007;-74
2023/05/28 03:31:13;;;;;;;13.18;6.13;;;;;;;;;;6307494;22;20014;-74
2023/05/28 03:33:40;;;;;;;13.75;6.03;;;;;;;;;;6307164;22;20453;-74
2023/05/28 03:36:06;;;;;;;11.57;6.28;;;;;;;;;;6306924;22;20444;-74
2023/05/28 03:38:33;;;;;;;11.10;5.97;;;;;;;;;;6307010;22;20373;-74
2023/05/28 03:40:59;;;;;;;13.95;6.05;;;;;;;;;;6307357;22;20000;-74
2023/05/28 03:43:25;;;;;;;11.65;6.32;;;;;;;;;;6306930;22;20321;-75
2023/05/28 03:45:51;;;;;;;8.98;5.78;;;;;;;;;;6307022;22;20026;-74
2023/05/28 03:48:18;;;;;;;12.20;5.65;;;;;;;;;;6307344;22;20015;-74
2023/05/28 03:50:44;;;;;;;11.48;6.18;;;;;;;;;;6307519;22;20329;-74
2023/05/28 03:53:10;;;;;;;11.88;6.10;;;;;;;;;;6307082;22;20372;-74
2023/05/28 03:55:38;;;;;;;12.10;5.63;;;;;;;;;;6307337;22;20063;-75
2023/05/28 03:58:04;;;;;;;14.68;5.97;;;;;;;;;;6306775;22;20022;-74
2023/05/28 04:00:30;;;;;;;12.60;5.85;;;;;;;;;;6307104;22;19995;-74
2023/05/28 04:02:56;;;;;;;9.90;5.88;;;;;;;;;;6306651;22;19995;-75
2023/05/28 04:05:24;;;;;;;15.85;6.25;;;;;;;;;;6306964;22;20448;-75
2023/05/28 04:07:50;;;;;;;10.90;6.20;;;;;;;;;;6280154;22;20359;-74
2023/05/28 04:10:16;;;;;;;10.73;6.22;;;;;;;;;;6307887;22;20003;-74
2023/05/28 04:12:42;;;;;;;8.20;5.40;;;;;;;;;;6307881;22;20108;-73
2023/05/28 04:15:08;;;;;;;12.13;5.95;;;;;;;;;;6307775;22;20052;-73
2023/05/28 04:17:35;;;;;;;12.35;6.22;;;;;;;;;;6307707;22;20019;-74
2023/05/28 04:20:13;;;;;;;11.95;6.35;;;;;;;;;;6279590;22;20429;-74
2023/05/28 04:23:01;;;;;;;9.60;5.65;;;;;;;;;;6307706;22;20003;-73
2023/05/28 04:26:24;;;;;;;9.98;6.10;;;;;;;;;;6306808;22;20023;-74
2023/05/28 04:38:51;;;;;;;12.98;6.03;;;;;;;;;;6212205;23;20013;-73
2023/05/28 04:41:23;;;;;;;14.90;6.03;;;;;;;;;;6172746;23;20119;-74
2023/05/28 04:44:26;;;;;;;14.65;6.00;;;;;;;;;;6208578;23;20414;-75
2023/05/28 04:46:52;;;;;;;13.35;5.72;;;;;;;;;;6210950;23;20008;-75
2023/05/28 04:49:18;;;;;;;14.23;5.93;;;;;;;;;;6270502;22;20077;-75
2023/05/28 04:51:44;;;;;;;9.55;6.00;;;;;;;;;;6306697;22;20248;-75
2023/05/28 04:54:10;;;;;;;13.55;5.78;;;;;;;;;;6306765;22;20011;-74
2023/05/28 04:56:36;;;;;;;12.88;5.68;;;;;;;;;;6308084;22;20042;-74
2023/05/28 04:59:04;;;;;;;17.77;5.72;;;;;;;;;;6309193;22;20003;-75
2023/05/28 05:01:33;;;;;;;16.52;6.70;;;;;;;;;;6308824;22;20006;-75
2023/05/28 05:03:59;;;;;;;12.98;6.30;;;;;;;;;;6308660;22;19999;-75
2023/05/28 05:06:25;;;;;;;10.80;5.82;;;;;;;;;;6308712;22;20003;-74
2023/05/28 05:08:53;;;;;;;13.80;5.80;;;;;;;;;;6308848;22;19999;-75
2023/05/28 05:11:20;;;;;;;9.55;5.53;;;;;;;;;;6308553;22;20052;-74
2023/05/28 05:13:46;;;;;;;12.18;5.57;;;;;;;;;;6308497;22;19996;-74
2023/05/28 05:16:12;;;;;;;15.05;5.72;;;;;;;;;;6308722;22;20459;-74
2023/05/28 05:18:38;;;;;;;12.30;5.35;;;;;;;;;;6308576;22;20003;-74
2023/05/28 05:21:04;;;;;;;10.82;5.38;;;;;;;;;;6308231;22;20321;-75
2023/05/28 05:23:30;;;;;;;11.82;5.10;;;;;;;;;;6280830;22;19995;-75
2023/05/28 05:25:57;;;;;;;9.48;4.60;;;;;;;;;;6308266;22;20464;-75
2023/05/28 05:28:23;;;;;;;9.90;5.13;;;;;;;;;;6308429;22;19999;-75
2023/05/28 05:30:49;;;;;;;14.45;5.18;;;;;;;;;;6308556;22;20006;-75
2023/05/28 05:33:15;;;;;;;15.13;4.90;;;;;;;;;;6308500;22;20000;-74
2023/05/28 05:35:41;;;;;;;10.55;4.57;;;;;;;;;;6308740;22;20386;-74
2023/05/28 05:38:08;;;;;;;12.25;4.70;;;;;;;;;;6308387;22;20015;-75
2023/05/28 05:40:34;;;;;;;12.25;5.07;;;;;;;;;;6281392;22;20420;-74
2023/05/28 05:43:00;;;;;;;9.40;4.65;;;;;;;;;;6308633;22;19999;-74
2023/05/28 05:45:26;;;;;;;12.93;4.63;;;;;;;;;;6280802;22;20128;-75
2023/05/28 05:47:52;;;;;;;12.02;4.82;;;;;;;;;;6306251;22;20337;-73
2023/05/28 05:50:18;;;;;;;11.10;4.70;;;;;;;;;;6277865;22;20011;-74
2023/05/28 05:53:14;;;;;;;12.02;5.07;;;;;;;;;;6305150;22;20003;-73
2023/05/28 05:55:40;;;;;;;8.77;3.90;;;;;;;;;;6282612;22;20311;-73
2023/05/28 05:58:31;;;;;;;8.77;4.38;;;;;;;;;;6307949;22;20037;-73
2023/05/28 06:14:33;;;;;;;11.43;4.28;;;;;;;;;;6036331;23;20056;-72
2023/05/28 06:16:59;;;;;;;10.50;4.72;;;;;;;;;;6035970;23;20212;-74
2023/05/28 06:19:48;;;;;;;10.27;4.00;;;;;;;;;;6037107;23;20007;-73
2023/05/28 06:22:15;;;;;;;8.65;4.05;;;;;;;;;;6124866;23;20006;-72
2023/05/28 06:24:41;;;;;;;11.70;4.43;;;;;;;;;;6153850;23;20377;-72
2023/05/28 06:27:08;;;;;;;10.98;4.70;;;;;;;;;;6187914;23;20000;-73
2023/05/28 06:29:34;;;;;;;9.43;4.72;;;;;;;;;;6307094;22;20008;-73
2023/05/28 06:32:00;;;;;;;10.70;4.18;;;;;;;;;;6305792;22;20420;-73
2023/05/28 06:34:26;;;;;;;10.27;4.10;;;;;;;;;;6276963;22;20593;-73
2023/05/28 06:36:52;;;;;;;9.60;4.78;;;;;;;;;;6278301;22;20429;-73
2023/05/28 06:39:19;;;;;;;9.38;4.55;;;;;;;;;;6307954;22;20019;-73
2023/05/28 06:41:45;;;;;;;9.57;4.50;;;;;;;;;;6307561;22;20052;-74
2023/05/28 06:44:11;;;;;;;11.68;5.05;;;;;;;;;;6307869;22;19995;-74
2023/05/28 06:46:37;;;;;;;13.10;4.30;;;;;;;;;;6307797;22;20475;-73
2023/05/28 06:49:04;;;;;;;44.55;5.93;;;;;;;;;;6307369;22;20016;-74
2023/05/28 06:51:31;;;;;;;70.25;8.23;;;;;;;;;;6280204;22;21047;-75
2023/05/28 06:53:57;;;;;;;11.88;4.43;;;;;;;;;;6307812;22;20422;-74
2023/05/28 06:56:23;;;;;;;10.68;4.78;;;;;;;;;;6307543;22;20003;-72
2023/05/28 06:58:50;;;;;;;8.00;4.22;;;;;;;;;;6307577;22;20425;-73
2023/05/28 07:01:17;;;;;;;9.82;3.85;;;;;;;;;;6307456;22;19999;-74
2023/05/28 07:03:43;;;;;;;9.77;4.20;;;;;;;;;;6308301;22;20044;-74
2023/05/28 07:06:10;;;;;;;8.68;4.03;;;;;;;;;;6308108;22;20006;-74
2023/05/28 07:08:36;;;;;;;7.72;4.40;;;;;;;;;;6307564;22;20011;-74
2023/05/28 07:11:03;;;;;;;12.40;4.05;;;;;;;;;;6307902;22;20108;-73
2023/05/28 07:13:29;;;;;;;12.70;3.92;;;;;;;;;;6307552;22;20559;-73
2023/05/28 07:15:55;;;;;;;8.38;3.80;;;;;;;;;;6307600;22;20003;-74
2023/05/28 07:18:23;;;;;;;10.60;4.28;;;;;;;;;;6307305;22;20007;-74
2023/05/28 07:20:49;;;;;;;8.25;4.22;;;;;;;;;;6307522;22;19999;-74
2023/05/28 07:23:15;;;;;;;13.48;4.13;;;;;;;;;;6307826;22;20007;-74
2023/05/28 07:25:42;;;;;;;11.00;5.00;;;;;;;;;;6280931;22;20010;-74
2023/05/28 07:28:08;;;;;;;12.00;4.10;;;;;;;;;;6308432;22;20286;-74
2023/05/28 07:30:35;;;;;;;10.40;4.18;;;;;;;;;;6307917;22;20200;-74
2023/05/28 07:33:01;;;;;;;11.32;4.05;;;;;;;;;;6280680;22;20331;-74
2023/05/28 07:45:19;;;;;;;12.27;5.00;;;;;;;;;;6192733;22;20035;-84
2023/05/28 07:47:45;;;;;;;7.78;4.18;;;;;;;;;;6245782;22;20000;-83
2023/05/28 07:50:11;;;;;;;10.13;4.68;;;;;;;;;;6243799;23;20011;-86
2023/05/28 07:52:40;;;;;;;10.25;4.93;;;;;;;;;;6245754;23;20023;-83
2023/05/28 07:55:07;;;;;;;11.68;4.72;;;;;;;;;;6245018;23;20028;-83
2023/05/28 07:57:33;;;;;;;9.00;4.32;;;;;;;;;;6245851;22;20015;-85
2023/05/28 08:00:00;;;;;;;9.55;4.05;;;;;;;;;;6244684;23;20004;-86
2023/05/28 08:02:27;;;;;;;9.75;4.47;;;;;;;;;;6245790;22;20004;-86
2023/05/28 08:04:53;;;;;;;8.25;4.15;;;;;;;;;;6245690;23;20035;-85
2023/05/28 08:07:19;;;;;;;8.80;4.68;;;;;;;;;;6245901;22;20075;-86
2023/05/28 08:09:45;;;;;;;8.52;4.50;;;;;;;;;;6244783;23;20050;-84
2023/05/28 08:12:11;;;;;;;10.73;4.95;;;;;;;;;;6243689;23;20004;-85
2023/05/28 08:14:38;;;;;;;18.25;6.03;;;;;;;;;;6245501;23;20036;-84
2023/05/28 08:17:04;;;;;;;12.63;4.50;;;;;;;;;;6245874;23;20008;-84
2023/05/28 08:19:30;;;;;;;10.60;4.82;;;;;;;;;;6245599;23;20426;-86
2023/05/28 08:21:57;;;;;;;7.20;4.15;;;;;;;;;;6245678;22;20004;-86
2023/05/28 08:24:23;;;;;;;12.68;4.60;;;;;;;;;;6245635;22;20071;-85
2023/05/28 08:26:49;;;;;;;8.65;4.63;;;;;;;;;;6245513;23;20333;-85
2023/05/28 08:29:15;;;;;;;7.97;5.25;;;;;;;;;;6245453;23;20000;-86
2023/05/28 08:31:41;;;;;;;9.40;4.68;;;;;;;;;;6245788;23;20004;-86
2023/05/28 08:34:08;;;;;;;13.60;5.03;;;;;;;;;;6241022;23;20095;-86
2023/05/28 08:36:35;;;;;;;7.78;4.93;;;;;;;;;;6240614;23;20020;-85
2023/05/28 08:39:01;;;;;;;9.68;5.00;;;;;;;;;;6243003;23;20057;-86
2023/05/28 08:41:27;;;;;;;9.48;4.72;;;;;;;;;;6245360;23;20422;-82
2023/05/28 08:43:53;;;;;;;11.77;5.05;;;;;;;;;;6245419;23;20076;-85
2023/05/28 08:46:19;;;;;;;9.05;4.85;;;;;;;;;;6243719;23;20012;-85
2023/05/28 08:48:46;;;;;;;8.88;4.93;;;;;;;;;;6245743;23;20024;-85
2023/05/28 08:51:12;;;;;;;10.15;5.30;;;;;;;;;;6245471;23;20007;-85
2023/05/28 08:53:44;;;;;;;7.80;5.25;;;;;;;;;;6245784;23;20003;-85
2023/05/28 08:56:10;;;;;;;;;;;;;;;;;;6245904;23;20079;-85
2023/05/28 08:58:36;;;;;;;11.13;5.70;;;;;;;;;;6243398;23;20287;-82
2023/05/28 09:01:06;;;;;;;7.55;4.78;;;;;;;;;;6240484;23;20087;-82
2023/05/28 09:03:33;;;;;;;7.40;4.75;;;;;;;;;;6242263;22;20361;-85
2023/05/28 09:05:59;;;;;;;9.10;5.13;;;;;;;;;;6245215;22;20015;-81
2023/05/28 09:08:25;;;;;;;7.38;5.30;;;;;;;;;;6245108;23;19997;-83
2023/05/28 09:10:51;;;;;;;8.77;4.80;;;;;;;;;;6245672;23;20004;-81
2023/05/28 09:13:20;;;;;;;9.95;5.13;;;;;;;;;;6245284;23;20445;-82
2023/05/28 09:15:50;;;;;;;8.55;4.93;;;;;;;;;;6245234;23;20111;-84
2023/05/28 09:18:20;;;;;;;9.45;4.88;;;;;;;;;;6245210;23;20114;-83
2023/05/28 09:20:47;;;;;;;11.43;4.32;;;;;;;;;;6245204;22;20066;-82
2023/05/28 09:23:16;;;;;;;10.52;5.07;;;;;;;;;;6243953;23;20442;-83
2023/05/28 09:25:44;;;;;;;9.07;4.75;;;;;;;;;;6244835;23;20000;-83
2023/05/28 09:28:12;;;;;;;10.75;4.70;;;;;;;;;;6244621;22;20113;-82
2023/05/28 09:30:38;;;;;;;10.30;4.47;;;;;;;;;;6245342;22;20035;-81
2023/05/28 09:33:08;;;;;;;9.85;5.07;;;;;;;;;;6245155;23;19996;-82
2023/05/28 09:35:34;;;;;;;10.10;4.68;;;;;;;;;;6245294;22;20000;-82
2023/05/28 09:38:07;;;;;;;9.20;4.82;;;;;;;;;;6244028;22;20008;-82
2023/05/28 09:40:40;;;;;;;7.78;4.60;;;;;;;;;;6242252;22;20020;-80
2023/05/28 09:43:07;;;;;;;7.80;4.47;;;;;;;;;;6243251;23;20000;-81
2023/05/28 09:45:34;;;;;;;11.18;4.82;;;;;;;;;;6244202;23;20342;-81
2023/05/28 09:48:00;;;;;;;9.45;4.90;;;;;;;;;;6245326;23;20028;-82
2023/05/28 09:50:26;;;;;;;9.18;4.88;;;;;;;;;;6247254;22;20045;-85
2023/05/28 09:52:55;;;;;;;8.75;4.65;;;;;;;;;;6246994;23;20087;-81
2023/05/28 09:55:23;;;;;;;10.48;4.70;;;;;;;;;;6246956;23;20000;-82
2023/05/28 09:58:02;;;;;;;12.20;4.70;;;;;;;;;;6247026;22;20426;-82
2023/05/28 10:00:31;;;;;;;10.68;4.70;;;;;;;;;;6246550;22;20334;-81
2023/05/28 10:03:12;;;;;;;7.07;4.53;;;;;;;;;;6246792;23;20008;-82
2023/05/28 10:05:40;;;;;;;12.23;4.82;;;;;;;;;;6246717;23;20001;-83
2023/05/28 10:08:08;;;;;;;14.20;5.03;;;;;;;;;;6246165;23;20032;-83
2023/05/28 10:10:35;;;;;;;10.18;4.82;;;;;;;;;;6246930;23;20122;-81
2023/05/28 10:13:01;;;;;;;9.73;5.05;;;;;;;;;;6246856;22;20000;-81
2023/05/28 10:15:28;;;;;;;9.52;4.65;;;;;;;;;;6246649;23;20326;-82
2023/05/28 10:17:55;;;;;;;7.15;4.38;;;;;;;;;;6246311;23;20012;-84
2023/05/28 10:20:21;;;;;;;8.85;4.53;;;;;;;;;;6246775;22;20058;-81
2023/05/28 10:22:48;;;;;;;12.07;4.88;;;;;;;;;;6246550;22;20008;-85
2023/05/28 10:25:14;;;;;;;11.00;4.30;;;;;;;;;;6248996;23;20071;-86
2023/05/28 10:27:45;;;;;;;6.10;4.28;;;;;;;;;;6246542;23;20072;-86
2023/05/28 10:30:12;;;;;;;9.65;4.78;;;;;;;;;;6246508;22;20418;-86
2023/05/28 10:32:42;;;;;;;7.10;5.05;;;;;;;;;;6246685;22;20027;-84
2023/05/28 10:35:12;;;;;;;10.35;4.90;;;;;;;;;;6246515;23;20486;-85
2023/05/28 10:37:38;;;;;;;8.65;4.90;;;;;;;;;;6246777;23;20012;-86
2023/05/28 10:40:07;;;;;;;9.43;4.45;;;;;;;;;;6246640;23;20031;-86
2023/05/28 10:42:39;;;;;;;10.30;4.85;;;;;;;;;;6246578;23;20016;-86
2023/05/28 10:45:12;;;;;;;8.60;4.75;;;;;;;;;;6250507;22;20011;-86
2023/05/28 10:47:39;;;;;;;17.15;5.32;;;;;;;;;;6280281;22;20043;-87
2023/05/28 10:50:08;;;;;;;9.57;4.43;;;;;;;;;;6278899;22;19996;-87
2023/05/28 10:52:37;;;;;;;8.50;4.72;;;;;;;;;;6279925;22;20084;-87
2023/05/28 10:55:04;;;;;;;7.38;4.68;;;;;;;;;;6252265;22;20079;-86
2023/05/28 10:57:50;;;;;;;9.30;4.57;;;;;;;;;;6278593;22;20098;-84
2023/05/28 11:00:26;;;;;;;10.25;4.50;;;;;;;;;;6273897;22;20026;-86
2023/05/28 11:02:52;;;;;;;6.97;4.72;;;;;;;;;;6274580;22;20010;-87
2023/05/28 11:05:25;;;;;;;9.13;4.55;;;;;;;;;;6276984;22;20004;-87
2023/05/28 11:07:51;;;;;;;10.20;4.70;;;;;;;;;;6277171;22;20368;-86
2023/05/28 11:10:17;;;;;;;7.00;4.57;;;;;;;;;;6276850;22;20418;-87
2023/05/28 11:12:44;;;;;;;9.25;4.55;;;;;;;;;;6276529;22;20004;-87
2023/05/28 11:15:14;;;;;;;8.15;4.53;;;;;;;;;;6249560;22;20037;-88
2023/05/28 11:17:44;;;;;;;8.93;4.85;;;;;;;;;;6249765;22;20016;-86
2023/05/28 11:20:27;;;;;;;9.20;4.90;;;;;;;;;;6276645;22;20496;-86
2023/05/28 11:22:53;;;;;;;9.40;4.45;;;;;;;;;;6275739;22;20022;-87
2023/05/28 11:25:25;;;;;;;6.43;4.15;;;;;;;;;;6273944;22;20015;-86
2023/05/28 11:27:53;;;;;;;7.05;4.22;;;;;;;;;;6273608;22;20014;-86
2023/05/28 11:30:20;;;;;;;13.52;4.97;;;;;;;;;;6275498;22;20463;-87
2023/05/28 11:32:50;;;;;;;7.57;4.40;;;;;;;;;;6276524;22;20330;-81
2023/05/28 11:35:17;;;;;;;5.95;4.50;;;;;;;;;;6275978;22;20031;-86
2023/05/28 11:37:43;;;;;;;7.63;4.25;;;;;;;;;;6275639;22;20011;-81
2023/05/28 11:40:11;;;;;;;8.02;4.25;;;;;;;;;;6275579;22;20000;-86
2023/05/28 11:42:39;;;;;;;7.60;4.38;;;;;;;;;;6275551;22;20480;-88
2023/05/28 11:45:06;;;;;;;5.70;3.97;;;;;;;;;;6275764;22;19996;-87
2023/05/28 11:47:35;;;;;;;10.82;4.38;;;;;;;;;;6274990;22;20007;-85
2023/05/28 11:50:27;;;;;;;7.35;4.03;;;;;;;;;;6273107;22;20007;-84
2023/05/28 11:52:53;;;;;;;;;;;;;;;;;;6268679;22;20020;-86
2023/05/28 11:55:19;;;;;;;5.53;3.70;;;;;;;;;;6270727;22;19980;-86
2023/05/28 11:57:55;;;;;;;9.50;4.38;;;;;;;;;;6276052;22;20008;-85
2023/05/28 12:00:31;;;;;;;7.47;3.92;;;;;;;;;;6274759;22;20038;-87
2023/05/28 12:02:57;;;;;;;8.90;4.80;;;;;;;;;;6275141;22;20047;-85
2023/05/28 12:05:23;;;;;;;6.68;4.10;;;;;;;;;;6248275;22;20003;-87
2023/05/28 12:07:50;;;;;;;7.60;4.10;;;;;;;;;;6245272;22;20469;-84
2023/05/28 12:10:21;;;;;;;8.15;4.60;;;;;;;;;;6272126;22;20000;-89
2023/05/28 12:12:48;;;;;;;6.32;4.13;;;;;;;;;;6272783;22;20008;-84
2023/05/28 12:15:15;;;;;;;9.57;4.65;;;;;;;;;;6246887;22;20078;-84
2023/05/28 12:17:42;;;;;;;7.85;4.30;;;;;;;;;;6275875;22;20004;-86
2023/05/28 12:20:18;;;;;;;7.85;4.38;;;;;;;;;;6274806;22;20083;-81
2023/05/28 12:22:44;;;;;;;7.47;4.57;;;;;;;;;;6274773;22;20000;-82
2023/05/28 12:25:11;;;;;;;5.68;3.75;;;;;;;;;;6275875;22;20000;-84
2023/05/28 12:27:37;;;;;;;7.22;3.97;;;;;;;;;;6275496;22;19999;-82
2023/05/28 12:30:04;;;;;;;7.88;3.75;;;;;;;;;;6247905;22;20004;-82
2023/05/28 12:32:30;;;;;;;8.30;3.80;;;;;;;;;;6274749;22;20023;-82
2023/05/28 12:34:57;;;;;;;10.50;4.25;;;;;;;;;;6247229;22;20012;-83
2023/05/28 12:37:23;;;;;;;7.93;4.13;;;;;;;;;;6274751;22;20042;-82
2023/05/28 12:39:50;;;;;;;7.45;3.95;;;;;;;;;;6275732;22;20030;-85
2023/05/28 12:42:16;;;;;;;8.25;4.15;;;;;;;;;;6275548;22;20445;-85
2023/05/28 12:44:42;;;;;;;8.75;4.22;;;;;;;;;;6275356;22;20370;-88
2023/05/28 12:47:09;;;;;;;11.05;3.70;;;;;;;;;;6248533;22;20073;-85
2023/05/28 12:49:36;;;;;;;7.88;3.72;;;;;;;;;;6248883;22;20038;-84
2023/05/28 12:52:02;;;;;;;6.30;3.95;;;;;;;;;;6275365;22;20468;-83
2023/05/28 12:54:28;;;;;;;6.97;3.80;;;;;;;;;;6275828;22;20000;-83
2023/05/28 12:56:54;;;;;;;8.88;4.90;;;;;;;;;;6275828;22;20007;-80
2023/05/28 12:59:24;;;;;;;8.35;4.00;;;;;;;;;;6275499;22;20010;-80
2023/05/28 13:01:50;;;;;;;7.25;4.35;;;;;;;;;;6275823;22;20054;-80
2023/05/28 13:04:17;;;;;;;10.32;4.20;;;;;;;;;;6275365;22;19996;-80
2023/05/28 13:06:43;;;;;;;7.38;4.25;;;;;;;;;;6275563;22;20083;-80
2023/05/28 13:09:11;;;;;;;9.10;4.28;;;;;;;;;;6275235;22;19999;-80
2023/05/28 13:11:38;;;;;;;6.72;4.00;;;;;;;;;;6275652;22;20026;-81
2023/05/28 13:14:04;;;;;;;9.38;4.03;;;;;;;;;;6274212;22;20061;-82
2023/05/28 13:16:30;;;;;;;8.43;4.43;;;;;;;;;;6272508;22;20047;-81
2023/05/28 13:18:56;;;;;;;8.77;4.00;;;;;;;;;;6274330;22;20483;-81
2023/05/28 13:21:22;;;;;;;9.18;4.45;;;;;;;;;;6277701;22;20360;-80
2023/05/28 13:23:48;;;;;;;7.57;4.30;;;;;;;;;;6250416;22;20035;-80
2023/05/28 13:26:15;;;;;;;7.00;4.18;;;;;;;;;;6277510;22;20477;-81
2023/05/28 13:28:41;;;;;;;9.43;4.75;;;;;;;;;;6277452;22;20010;-81
2023/05/28 13:31:08;;;;;;;8.52;3.92;;;;;;;;;;6277606;22;20075;-79
2023/05/28 13:33:34;;;;;;;6.43;3.80;;;;;;;;;;6277303;22;20035;-80
2023/05/28 13:36:00;;;;;;;11.18;5.13;;;;;;;;;;6277459;22;19996;-82
2023/05/28 13:38:26;;;;;;;6.60;3.97;;;;;;;;;;6277723;22;20426;-82
2023/05/28 13:40:53;;;;;;;5.30;3.95;;;;;;;;;;6277636;22;20007;-81
2023/05/28 13:43:19;;;;;;;8.82;4.13;;;;;;;;;;6277874;22;20087;-81
2023/05/28 13:45:45;;;;;;;7.88;4.03;;;;;;;;;;6277445;22;20081;-82
2023/05/28 13:48:11;;;;;;;9.05;4.00;;;;;;;;;;6277652;22;19996;-81
2023/05/28 13:50:37;;;;;;;9.48;4.13;;;;;;;;;;6277203;22;20000;-83
2023/05/28 13:53:04;;;;;;;9.45;3.83;;;;;;;;;;6277726;22;20007;-82
2023/05/28 13:55:30;;;;;;;7.45;3.70;;;;;;;;;;6277656;22;20000;-84
2023/05/28 13:57:56;;;;;;;10.27;4.05;;;;;;;;;;6277498;22;20396;-84
2023/05/28 14:00:22;;;;;;;6.15;3.85;;;;;;;;;;6276641;22;20007;-83
2023/05/28 14:02:51;;;;;;;6.15;3.92;;;;;;;;;;6277073;22;20035;-83
2023/05/28 14:05:17;;;;;;;13.32;3.88;;;;;;;;;;6274892;22;20049;-85
2023/05/28 14:07:43;;;;;;;8.45;4.30;;;;;;;;;;6246565;22;20020;-82
2023/05/28 14:10:09;;;;;;;6.25;3.83;;;;;;;;;;6273895;22;20003;-80
2023/05/28 14:12:35;;;;;;;6.50;4.30;;;;;;;;;;6247081;22;20008;-85
2023/05/28 14:15:02;;;;;;;7.95;4.00;;;;;;;;;;6246285;22;20010;-86
2023/05/28 14:17:28;;;;;;;9.48;4.38;;;;;;;;;;6275123;22;20015;-87
2023/05/28 14:19:54;;;;;;;10.45;4.22;;;;;;;;;;6276432;22;20426;-87
2023/05/28 14:22:20;;;;;;;7.95;4.45;;;;;;;;;;6277454;22;20004;-84
2023/05/28 14:24:46;;;;;;;14.88;4.43;;;;;;;;;;6277736;22;20000;-88
2023/05/28 14:27:12;;;;;;;11.82;4.80;;;;;;;;;;6277355;22;20525;-85
2023/05/28 14:29:38;;;;;;;7.22;4.55;;;;;;;;;;6277160;22;19995;-88
2023/05/28 14:32:05;;;;;;;13.63;5.13;;;;;;;;;;6277128;22;20000;-88
2023/05/28 14:34:31;;;;;;;10.40;5.05;;;;;;;;;;6277250;22;20004;-85
2023/05/28 14:36:59;;;;;;;11.40;4.72;;;;;;;;;;6249662;22;20016;-84
2023/05/28 14:39:25;;;;;;;7.97;4.68;;;;;;;;;;6249916;22;20058;-86
2023/05/28 14:41:51;;;;;;;9.18;5.05;;;;;;;;;;6276852;22;20007;-86
2023/05/28 14:44:17;;;;;;;9.75;5.00;;;;;;;;;;6276616;22;20000;-85
2023/05/28 14:46:43;;;;;;;9.43;4.47;;;;;;;;;;6277012;22;20445;-84
2023/05/28 14:49:09;;;;;;;7.57;4.45;;;;;;;;;;6277080;22;20006;-85
2023/05/28 14:51:35;;;;;;;6.95;4.50;;;;;;;;;;6250227;22;20008;-85
2023/05/28 14:54:01;;;;;;;12.00;4.88;;;;;;;;;;6275488;22;20003;-85
2023/05/28 14:56:27;;;;;;;12.15;4.95;;;;;;;;;;6276717;22;20056;-85
2023/05/28 14:58:53;;;;;;;9.50;5.25;;;;;;;;;;6276431;22;20028;-86
2023/05/28 15:01:20;;;;;;;14.15;5.85;;;;;;;;;;6276841;22;20000;-85
2023/05/28 15:03:46;;;;;;;9.15;5.25;;;;;;;;;;6249804;22;20032;-85
2023/05/28 15:06:12;;;;;;;9.93;5.60;;;;;;;;;;6277421;22;20081;-86
2023/05/28 15:08:38;;;;;;;11.57;5.25;;;;;;;;;;6276911;22;20481;-86
2023/05/28 15:11:06;;;;;;;12.80;4.15;;;;;;;;;;6249596;22;20003;-85
2023/05/28 15:13:32;;;;;;;14.88;5.57;;;;;;;;;;6249779;22;20444;-86
2023/05/28 15:15:58;;;;;;;8.60;4.80;;;;;;;;;;6249838;22;20375;-86
2023/05/28 15:18:24;;;;;;;11.77;5.45;;;;;;;;;;6276979;22;20008;-85
2023/05/28 15:20:50;;;;;;;8.93;4.82;;;;;;;;;;6276709;22;20034;-86
2023/05/28 15:23:16;;;;;;;10.27;5.28;;;;;;;;;;6276768;22;20000;-84
2023/05/28 15:25:42;;;;;;;9.18;4.65;;;;;;;;;;6248365;22;20487;-85
2023/05/28 15:28:09;;;;;;;11.98;5.15;;;;;;;;;;6273332;22;20434;-84
2023/05/28 15:30:35;;;;;;;9.25;5.30;;;;;;;;;;6273685;22;20004;-86
2023/05/28 15:33:03;;;;;;;10.60;5.10;;;;;;;;;;6249587;22;20030;-85
2023/05/28 15:35:29;;;;;;;15.05;6.38;;;;;;;;;;6276657;22;20027;-85
2023/05/28 15:37:55;;;;;;;9.50;5.20;;;;;;;;;;6276250;22;20011;-82
2023/05/28 15:40:22;;;;;;;7.20;4.90;;;;;;;;;;6276466;22;20325;-84
2023/05/28 15:42:48;;;;;;;9.65;7.63;;;;;;;;;;6249527;22;20012;-84